Zutphen, Netherlands
Current Conditions -  °F | °C
As of 2:55 PM on Thursday 23 Oct 2014 (Local Time) from EHDL Reporting Station
Broken Clouds Broken Clouds  
Wind Chill: 57°   Ceiling: 2300
Heat Index: 57°   Visibility: 6mi
Dew Point: 50°   Wind: 13mph
Humidity: 77%   Direction: 210°SSW
Pressure: 30.15"   Gusts: NA
Location:  52.14°N, 6.2°E
Report Text: EHDL 231255Z AUTO 21011KT 9999 FEW019 BKN023 BKN027 14/10 Q1021 WHT
Loading
Personal Weather Stations






























Interactive Weather Map
Tropical Storm Tracking
New forecast layout! Learn more

10-Day Weather Forecast

Advertisements
Track Severe Weather on mobile